Time;durP1;ratioP1;P1;durP2;ratioP2;P2;SDS_P1;SDS_P2;PMS_P1;PMS_P2;Temp;Humidity;BMP_temperature;BMP_pressure;BME280_temperature;BME280_humidity;BME280_pressure;Samples;Min_cycle;Max_cycle;Signal;HPM_P1;HPM_P2
2022/03/07 00:02:48;;;;;;;0.63;0.60;;;;;;;-148.93;100.00;62180.91;20959233;28;20098;-75
2022/03/07 00:12:50;;;;;;;0.98;0.88;;;;;;;-148.93;100.00;62180.91;20936777;28;20044;-75
2022/03/07 00:22:52;;;;;;;0.88;0.77;;;;;;;-148.93;100.00;62180.91;20944454;28;20063;-75
2022/03/07 00:32:54;;;;;;;0.90;0.80;;;;;;;-148.93;100.00;62180.91;20953945;28;20098;-75
2022/03/07 00:42:56;;;;;;;0.75;0.73;;;;;;;-148.93;100.00;62180.91;20955808;28;20086;-75
2022/03/07 00:52:59;;;;;;;2.00;1.00;;;;;;;-148.93;100.00;62180.91;20943007;28;20064;-76
2022/03/07 01:03:01;;;;;;;0.70;0.60;;;;;;;-148.93;100.00;62180.91;20955953;28;20075;-75
2022/03/07 01:13:04;;;;;;;0.90;0.77;;;;;;;-148.93;100.00;62180.91;20931985;28;20492;-75
2022/03/07 01:23:06;;;;;;;1.00;0.60;;;;;;;-148.93;100.00;62180.91;20931493;28;20101;-75
2022/03/07 01:33:07;;;;;;;0.93;0.77;;;;;;;-148.93;100.00;62180.91;20933438;28;20467;-76
2022/03/07 01:43:10;;;;;;;0.75;0.68;;;;;;;-148.93;100.00;62180.91;20934984;28;20047;-76
2022/03/07 01:53:12;;;;;;;1.10;0.77;;;;;;;-148.93;100.00;62180.91;20941335;28;20043;-76
2022/03/07 02:03:14;;;;;;;1.02;0.93;;;;;;;-148.93;100.00;62180.91;20933526;28;20084;-76
2022/03/07 02:13:21;;;;;;;0.80;0.80;;;;;;;-148.93;100.00;62180.91;20954774;28;20048;-76
2022/03/07 02:23:34;;;;;;;0.80;0.70;;;;;;;-148.93;100.00;62180.91;20909823;28;20538;-75
2022/03/07 02:33:37;;;;;;;1.30;0.77;;;;;;;-148.93;100.00;62180.91;20929000;28;20041;-76
2022/03/07 02:43:39;;;;;;;1.20;0.80;;;;;;;-148.93;100.00;62180.91;20927891;28;20056;-76
2022/03/07 02:53:41;;;;;;;0.60;0.50;;;;;;;-148.93;100.00;62180.91;20928639;28;20077;-75
2022/03/07 03:03:42;;;;;;;0.75;0.75;;;;;;;-148.93;100.00;62180.91;20979390;28;20044;-76
2022/03/07 03:13:45;;;;;;;1.35;0.77;;;;;;;-148.93;100.00;62180.91;20960884;28;20466;-76
2022/03/07 03:23:48;;;;;;;1.08;0.70;;;;;;;-148.93;100.00;62180.91;20951989;28;20067;-76
2022/03/07 03:33:50;;;;;;;0.73;0.60;;;;;;;-148.93;100.00;62180.91;20938945;28;20057;-76
2022/03/07 03:43:51;;;;;;;0.90;0.70;;;;;;;-148.93;100.00;62180.91;20963836;28;20044;-76
2022/03/07 03:53:53;;;;;;;0.73;0.70;;;;;;;-148.93;100.00;62180.91;20937698;28;20067;-76
2022/03/07 04:03:55;;;;;;;0.73;0.68;;;;;;;-148.93;100.00;62180.91;20925624;28;20053;-75
2022/03/07 04:13:57;;;;;;;0.80;0.77;;;;;;;-148.93;100.00;62180.91;20925425;28;20055;-75
2022/03/07 04:23:59;;;;;;;1.23;0.70;;;;;;;-148.93;100.00;62180.91;20964860;28;20041;-75
2022/03/07 04:34:02;;;;;;;1.42;0.75;;;;;;;-148.93;100.00;62180.91;20942068;28;20140;-75
2022/03/07 04:44:04;;;;;;;1.33;0.82;;;;;;;-148.93;100.00;62180.91;20958272;28;20033;-75
2022/03/07 04:54:06;;;;;;;1.08;0.60;;;;;;;-148.93;100.00;62180.91;20937892;28;20090;-76
2022/03/07 05:04:09;;;;;;;0.57;0.57;;;;;;;-148.93;100.00;62180.91;20912143;28;20067;-75
2022/03/07 05:14:11;;;;;;;0.65;0.65;;;;;;;-148.93;100.00;62180.91;20918720;28;20057;-76
2022/03/07 05:24:13;;;;;;;0.70;0.60;;;;;;;-148.93;100.00;62180.91;20937623;28;20155;-75
2022/03/07 05:34:14;;;;;;;0.68;0.68;;;;;;;-148.93;100.00;62180.91;20947305;28;20094;-75
2022/03/07 05:44:16;;;;;;;0.60;0.60;;;;;;;-148.93;100.00;62180.91;20949037;28;20048;-75
2022/03/07 05:54:18;;;;;;;0.95;0.60;;;;;;;-148.93;100.00;62180.91;20946300;28;20934;-77
2022/03/07 06:04:20;;;;;;;0.70;0.70;;;;;;;-148.93;100.00;62180.91;20930646;28;20052;-77
2022/03/07 06:14:22;;;;;;;0.85;0.70;;;;;;;-148.93;100.00;62180.91;20941016;28;20061;-76
2022/03/07 06:24:24;;;;;;;0.80;0.60;;;;;;;-148.93;100.00;62180.91;20973003;28;20483;-76
2022/03/07 06:34:26;;;;;;;1.20;0.80;;;;;;;-148.93;100.00;62180.91;20990105;28;20045;-77
2022/03/07 06:44:28;;;;;;;1.42;0.65;;;;;;;-148.93;100.00;62180.91;21001182;28;20045;-77
2022/03/07 06:54:30;;;;;;;1.23;0.85;;;;;;;-148.93;100.00;62180.91;21000703;28;20154;-77
2022/03/07 07:04:32;;;;;;;3.47;1.35;;;;;;;-148.93;100.00;62180.91;21000599;28;20512;-76
2022/03/07 07:14:34;;;;;;;1.38;0.80;;;;;;;-148.93;100.00;62180.91;21000130;28;20048;-77
2022/03/07 07:24:36;;;;;;;0.88;0.88;;;;;;;-148.93;100.00;62180.91;20999202;28;20486;-77
2022/03/07 07:34:38;;;;;;;1.58;1.00;;;;;;;-148.93;100.00;62180.91;20998438;28;20055;-76
2022/03/07 07:44:40;;;;;;;0.93;0.75;;;;;;;-148.93;100.00;62180.91;20997510;28;20110;-75
2022/03/07 07:54:42;;;;;;;1.77;0.93;;;;;;;-148.93;100.00;62180.91;20998147;28;20048;-75
2022/03/07 08:04:43;;;;;;;1.92;0.85;;;;;;;-148.93;100.00;62180.91;20996097;28;20052;-75
2022/03/07 08:14:45;;;;;;;1.35;0.73;;;;;;;-148.93;100.00;62180.91;20993554;28;20063;-75
2022/03/07 08:24:47;;;;;;;1.00;0.82;;;;;;;-148.93;100.00;62180.91;20993998;28;20044;-75
2022/03/07 08:34:49;;;;;;;1.05;0.80;;;;;;;-148.93;100.00;62180.91;20993449;28;20052;-75
2022/03/07 08:44:52;;;;;;;0.77;0.65;;;;;;;-148.93;100.00;62180.91;20992837;28;20052;-75
2022/03/07 08:54:54;;;;;;;0.93;0.68;;;;;;;-148.93;100.00;62180.91;20992643;28;20044;-75
2022/03/07 09:04:56;;;;;;;1.33;0.73;;;;;;;-148.93;100.00;62180.91;20991888;28;20056;-76
2022/03/07 09:15:00;;;;;;;1.08;0.70;;;;;;;-148.93;100.00;62180.91;20991323;28;20048;-76
2022/03/07 09:25:03;;;;;;;0.98;0.63;;;;;;;-148.93;100.00;62180.91;20989589;28;20047;-76
2022/03/07 09:35:05;;;;;;;0.98;0.73;;;;;;;-148.93;100.00;62180.91;21004432;28;20105;-76
2022/03/07 09:45:09;;;;;;;1.75;0.77;;;;;;;-148.93;100.00;62180.91;21005759;28;20478;-76
2022/03/07 09:55:16;;;;;;;0.75;0.57;;;;;;;-148.93;100.00;62180.91;21006535;28;20499;-81
2022/03/07 10:05:18;;;;;;;1.08;0.60;;;;;;;-148.93;100.00;62180.91;21005828;28;20091;-76
2022/03/07 10:15:22;;;;;;;0.95;0.60;;;;;;;-148.93;100.00;62180.91;21003452;28;20048;-76
2022/03/07 10:25:26;;;;;;;0.93;0.60;;;;;;;-148.93;100.00;62180.91;21003798;28;20486;-76
2022/03/07 10:35:41;;;;;;;2.30;0.68;;;;;;;-148.93;100.00;62180.91;21002137;28;20040;-76
2022/03/07 10:45:55;;;;;;;1.70;0.50;;;;;;;-148.93;100.00;62180.91;21001771;28;20490;-77
2022/03/07 10:56:00;;;;;;;1.23;0.80;;;;;;;-148.93;100.00;62180.91;20994511;28;20052;-76
2022/03/07 11:06:04;;;;;;;0.63;0.40;;;;;;;-148.93;100.00;62180.91;21001525;28;20060;-76
2022/03/07 11:16:06;;;;;;;0.88;0.38;;;;;;;-148.93;100.00;62180.91;21000175;28;20041;-76
2022/03/07 11:26:09;;;;;;;0.88;0.50;;;;;;;-148.93;100.00;62180.91;20999068;28;20086;-76
2022/03/07 11:36:18;;;;;;;0.90;0.40;;;;;;;-148.93;100.00;62180.91;20997273;28;20056;-76
2022/03/07 11:46:25;;;;;;;0.63;0.45;;;;;;;-148.93;100.00;62180.91;20996732;28;20040;-76
2022/03/07 11:56:29;;;;;;;0.25;0.25;;;;;;;-148.93;100.00;62180.91;20995917;28;20059;-76
2022/03/07 12:07:00;;;;;;;0.38;0.38;;;;;;;-148.93;100.00;62180.91;20995095;28;20055;-78
2022/03/07 12:17:10;;;;;;;1.60;0.50;;;;;;;-148.93;100.00;62180.91;20995311;28;20114;-76
2022/03/07 12:27:12;;;;;;;0.50;0.47;;;;;;;-148.93;100.00;62180.91;20994285;28;20040;-77
2022/03/07 12:37:20;;;;;;;1.05;0.40;;;;;;;-148.93;100.00;62180.91;20993673;28;20052;-76
2022/03/07 12:47:30;;;;;;;0.63;0.40;;;;;;;-148.93;100.00;62180.91;20991582;28;20110;-77
2022/03/07 12:57:31;;;;;;;0.30;0.30;;;;;;;-148.93;100.00;62180.91;20974808;28;20498;-77
2022/03/07 13:07:33;;;;;;;1.13;0.38;;;;;;;-148.93;100.00;62180.91;20991472;28;20044;-76
2022/03/07 13:17:35;;;;;;;0.55;0.35;;;;;;;-148.93;100.00;62180.91;20990013;28;20139;-77
2022/03/07 13:27:45;;;;;;;0.30;0.30;;;;;;;-148.93;100.00;62180.91;20956842;28;20437;-77
2022/03/07 13:37:47;;;;;;;0.80;0.45;;;;;;;-148.93;100.00;62180.91;20990775;28;20046;-77
2022/03/07 13:47:55;;;;;;;1.20;0.50;;;;;;;-148.93;100.00;62180.91;20990012;28;20043;-77
2022/03/07 13:57:57;;;;;;;0.70;0.30;;;;;;;-148.93;100.00;62180.91;20988674;28;20048;-77
2022/03/07 14:08:00;;;;;;;0.50;0.50;;;;;;;-148.93;100.00;62180.91;20989948;28;20202;-77
2022/03/07 14:18:22;;;;;;;0.35;0.30;;;;;;;-148.93;100.00;62180.91;20996525;28;20037;-77
2022/03/07 14:28:23;;;;;;;0.38;0.38;;;;;;;-148.93;100.00;62180.91;20985915;28;20094;-77
2022/03/07 14:38:25;;;;;;;0.30;0.30;;;;;;;-148.93;100.00;62180.91;21003088;28;20044;-77
2022/03/07 14:48:27;;;;;;;0.30;0.30;;;;;;;-148.93;100.00;62180.91;21003141;28;20040;-77
2022/03/07 14:58:29;;;;;;;0.60;0.40;;;;;;;-148.93;100.00;62180.91;20925441;28;20053;-76
2022/03/07 15:08:31;;;;;;;0.32;0.22;;;;;;;-148.93;100.00;62180.91;20917645;28;20099;-77
2022/03/07 15:18:35;;;;;;;0.40;0.35;;;;;;;-148.93;100.00;62180.91;20919307;28;20518;-77
2022/03/07 15:28:37;;;;;;;0.32;0.22;;;;;;;-148.93;100.00;62180.91;20916634;28;20141;-77
2022/03/07 15:38:39;;;;;;;0.25;0.20;;;;;;;-148.93;100.00;62180.91;20915945;28;20049;-77
2022/03/07 15:48:42;;;;;;;0.25;0.25;;;;;;;-148.93;100.00;62180.91;20915390;28;20553;-77
2022/03/07 15:58:45;;;;;;;0.30;0.30;;;;;;;-148.93;100.00;62180.91;20913873;28;20061;-77
2022/03/07 16:08:47;;;;;;;0.47;0.30;;;;;;;-148.93;100.00;62180.91;20913038;28;20060;-77
2022/03/07 16:18:49;;;;;;;0.20;0.20;;;;;;;-148.93;100.00;62180.91;20913081;28;20076;-77
2022/03/07 16:28:51;;;;;;;0.40;0.30;;;;;;;-148.93;100.00;62180.91;20910282;28;20442;-78
2022/03/07 16:38:54;;;;;;;0.28;0.20;;;;;;;-148.93;100.00;62180.91;20910585;28;20466;-77
2022/03/07 16:48:56;;;;;;;0.68;0.30;;;;;;;-148.93;100.00;62180.91;20909175;28;20053;-77
2022/03/07 16:58:57;;;;;;;0.50;0.30;;;;;;;-148.93;100.00;62180.91;20909415;28;20053;-77
2022/03/07 17:08:59;;;;;;;0.40;0.40;;;;;;;-148.93;100.00;62180.91;20908797;28;20045;-77
2022/03/07 17:19:01;;;;;;;0.40;0.32;;;;;;;-148.93;100.00;62180.91;20909028;28;20045;-77
2022/03/07 17:29:04;;;;;;;0.40;0.30;;;;;;;-148.93;100.00;62180.91;20907990;28;20053;-77
2022/03/07 17:39:06;;;;;;;0.35;0.35;;;;;;;-148.93;100.00;62180.91;20907694;28;20051;-77
2022/03/07 17:49:08;;;;;;;0.32;0.30;;;;;;;-148.93;100.00;62180.91;20908024;28;20044;-77
2022/03/07 17:59:10;;;;;;;0.38;0.30;;;;;;;-148.93;100.00;62180.91;20937698;28;20059;-77
2022/03/07 18:09:13;;;;;;;0.52;0.40;;;;;;;-148.93;100.00;62180.91;20922923;28;20121;-77
2022/03/07 18:19:15;;;;;;;0.65;0.40;;;;;;;-148.93;100.00;62180.91;20922247;28;20502;-77
2022/03/07 18:29:17;;;;;;;0.32;0.32;;;;;;;-148.93;100.00;62180.91;20903494;28;20283;-77
2022/03/07 18:39:19;;;;;;;1.30;0.40;;;;;;;-148.93;100.00;62180.91;20919269;28;20045;-77
2022/03/07 18:49:21;;;;;;;0.32;0.30;;;;;;;-148.93;100.00;62180.91;20918327;28;20056;-77
2022/03/07 18:59:24;;;;;;;0.32;0.32;;;;;;;-148.93;100.00;62180.91;20916971;28;20049;-77
2022/03/07 19:09:25;;;;;;;0.88;0.40;;;;;;;-148.93;100.00;62180.91;20916901;28;20041;-77
2022/03/07 19:19:27;;;;;;;0.82;0.40;;;;;;;-148.93;100.00;62180.91;20917010;28;20061;-77
2022/03/07 19:29:29;;;;;;;0.35;0.35;;;;;;;-148.93;100.00;62180.91;20916748;28;20045;-77
2022/03/07 19:39:31;;;;;;;0.73;0.40;;;;;;;-148.93;100.00;62180.91;20915895;28;20036;-77
2022/03/07 19:49:33;;;;;;;0.65;0.60;;;;;;;-148.93;100.00;62180.91;20915044;28;20075;-77
2022/03/07 19:59:35;;;;;;;1.02;0.57;;;;;;;-148.93;100.00;62180.91;20914491;28;20046;-77
2022/03/07 20:09:37;;;;;;;0.70;0.70;;;;;;;-148.93;100.00;62180.91;20913316;28;20128;-77
2022/03/07 20:19:41;;;;;;;0.68;0.50;;;;;;;-148.93;100.00;62180.91;20911600;28;20453;-77
2022/03/07 20:29:43;;;;;;;0.65;0.60;;;;;;;-148.93;100.00;62180.91;20911860;28;20048;-77
2022/03/07 20:39:45;;;;;;;0.60;0.60;;;;;;;-148.93;100.00;62180.91;20909751;28;20060;-77
2022/03/07 20:49:48;;;;;;;0.70;0.60;;;;;;;-148.93;100.00;62180.91;20911392;28;20171;-77
2022/03/07 20:59:50;;;;;;;0.75;0.70;;;;;;;-148.93;100.00;62180.91;20908516;28;20116;-77
2022/03/07 21:09:51;;;;;;;1.17;0.73;;;;;;;-148.93;100.00;62180.91;20921642;28;20406;-78
2022/03/07 21:19:53;;;;;;;0.65;0.65;;;;;;;-148.93;100.00;62180.91;20943203;28;20044;-78
2022/03/07 21:29:55;;;;;;;1.50;0.75;;;;;;;-148.93;100.00;62180.91;20942669;28;20051;-77
2022/03/07 21:39:57;;;;;;;0.98;0.75;;;;;;;-148.93;100.00;62180.91;20977980;28;20041;-78
2022/03/07 21:49:59;;;;;;;1.30;0.75;;;;;;;-148.93;100.00;62180.91;20935662;28;20506;-77
2022/03/07 22:00:01;;;;;;;1.15;0.90;;;;;;;-148.93;100.00;62180.91;20923184;28;20041;-77
2022/03/07 22:10:12;;;;;;;1.08;0.80;;;;;;;-148.93;100.00;62180.91;20952485;28;20180;-78
2022/03/07 22:20:14;;;;;;;1.15;0.70;;;;;;;-148.93;100.00;62180.91;20981415;28;20054;-78
2022/03/07 22:30:16;;;;;;;1.63;0.82;;;;;;;-148.93;100.00;62180.91;20908024;28;20044;-78
2022/03/07 22:40:18;;;;;;;1.30;0.80;;;;;;;-148.93;100.00;62180.91;20909483;28;20045;-77
2022/03/07 22:50:20;;;;;;;0.73;0.70;;;;;;;-148.93;100.00;62180.91;20917027;28;20096;-77
2022/03/07 23:00:23;;;;;;;1.02;0.80;;;;;;;-148.93;100.00;62180.91;20915196;28;20061;-77
2022/03/07 23:10:25;;;;;;;1.38;0.90;;;;;;;-148.93;100.00;62180.91;20915387;28;20044;-78
2022/03/07 23:20:27;;;;;;;1.50;0.95;;;;;;;-148.93;100.00;62180.91;20914982;28;20053;-75
2022/03/07 23:30:29;;;;;;;1.48;1.00;;;;;;;-148.93;100.00;62180.91;20912756;28;20037;-76
2022/03/07 23:40:31;;;;;;;0.95;0.80;;;;;;;-148.93;100.00;62180.91;20912099;28;20053;-76
2022/03/07 23:50:33;;;;;;;1.20;1.00;;;;;;;-148.93;100.00;62180.91;20911988;28;20080;-76
